createdAt,value
2022-10-02T00:01:45.862Z,12.27
2022-10-02T00:04:25.190Z,12.28
2022-10-02T00:07:05.494Z,12.29
2022-10-02T00:09:44.166Z,12.30
2022-10-02T00:12:25.744Z,12.30
2022-10-02T00:15:05.884Z,12.29
2022-10-02T00:17:43.632Z,12.27
2022-10-02T00:20:19.871Z,12.26
2022-10-02T00:22:59.927Z,12.26
2022-10-02T00:25:41.781Z,12.24
2022-10-02T00:28:28.695Z,12.27
2022-10-02T00:31:20.934Z,12.24
2022-10-02T00:34:06.133Z,12.17
2022-10-02T00:36:51.286Z,12.10
2022-10-02T00:39:40.714Z,12.08
2022-10-02T00:42:53.232Z,12.09
2022-10-02T00:45:46.906Z,12.05
2022-10-02T00:48:47.605Z,12.04
2022-10-02T00:51:41.464Z,11.99
2022-10-02T00:54:33.069Z,11.99
2022-10-02T00:57:13.157Z,12.00
2022-10-02T01:00:03.146Z,12.01
2022-10-02T01:02:50.161Z,12.01
2022-10-02T01:05:23.969Z,12.00
2022-10-02T01:07:57.347Z,12.11
2022-10-02T01:10:33.309Z,12.02
2022-10-02T01:13:08.075Z,12.02
2022-10-02T01:15:48.025Z,12.03
2022-10-02T01:18:23.536Z,12.03
2022-10-02T01:21:01.404Z,12.04
2022-10-02T01:23:40.692Z,12.05
2022-10-02T01:26:15.683Z,12.07
2022-10-02T01:28:49.635Z,12.07
2022-10-02T01:31:25.108Z,12.09
2022-10-02T01:33:58.823Z,12.11
2022-10-02T01:36:32.486Z,12.13
2022-10-02T01:39:06.310Z,12.26
2022-10-02T01:41:45.017Z,12.17
2022-10-02T01:44:18.591Z,12.16
2022-10-02T01:47:01.329Z,12.17
2022-10-02T01:49:57.304Z,12.21
2022-10-02T01:52:42.772Z,12.21
2022-10-02T01:55:26.729Z,12.22
2022-10-02T01:58:07.443Z,12.31
2022-10-02T02:00:53.154Z,12.16
2022-10-02T02:03:40.705Z,12.08
2022-10-02T02:06:22.988Z,11.99
2022-10-02T02:09:05.425Z,11.91
2022-10-02T02:11:46.202Z,11.85
2022-10-02T02:14:27.379Z,11.80
2022-10-02T02:17:08.422Z,11.74
2022-10-02T02:19:47.346Z,11.71
2022-10-02T02:22:25.881Z,11.70
2022-10-02T02:25:03.451Z,11.69
2022-10-02T02:27:41.542Z,11.72
2022-10-02T02:30:18.022Z,11.76
2022-10-02T02:32:56.158Z,11.82
2022-10-02T02:35:35.570Z,11.89
2022-10-02T02:38:13.811Z,11.95
2022-10-02T02:40:48.512Z,12.00
2022-10-02T02:43:26.124Z,12.02
2022-10-02T02:46:08.074Z,12.06
2022-10-02T02:48:47.629Z,12.09
2022-10-02T02:51:25.005Z,12.11
2022-10-02T02:54:03.748Z,12.13
2022-10-02T02:56:38.689Z,12.13
2022-10-02T02:59:13.731Z,12.14
2022-10-02T03:01:48.749Z,12.18
2022-10-02T03:04:22.343Z,12.20
2022-10-02T03:07:00.305Z,12.24
2022-10-02T03:09:34.768Z,12.26
2022-10-02T03:12:18.309Z,12.28
2022-10-02T03:15:08.706Z,12.32
2022-10-02T03:18:02.644Z,12.33
2022-10-02T03:20:44.253Z,12.32
2022-10-02T03:23:24.913Z,12.33
2022-10-02T03:26:05.215Z,12.32
2022-10-02T03:28:55.503Z,12.31
2022-10-02T03:31:34.243Z,12.28
2022-10-02T03:34:09.918Z,12.27
2022-10-02T03:36:44.060Z,12.26
2022-10-02T03:39:25.293Z,12.26
2022-10-02T03:42:00.057Z,12.26
2022-10-02T03:44:33.746Z,12.26
2022-10-02T03:47:07.344Z,12.26
2022-10-02T03:49:42.319Z,12.26
2022-10-02T03:52:17.929Z,12.25
2022-10-02T03:54:55.733Z,12.23
2022-10-02T03:57:31.539Z,12.24
2022-10-02T04:00:09.599Z,12.24
2022-10-02T04:02:47.559Z,12.24
2022-10-02T04:05:27.763Z,12.26
2022-10-02T04:08:06.523Z,12.24
2022-10-02T04:10:47.867Z,12.23
2022-10-02T04:13:28.743Z,12.22
2022-10-02T04:16:17.811Z,12.26
2022-10-02T04:18:57.040Z,12.25
2022-10-02T04:21:42.213Z,12.27
2022-10-02T04:24:23.225Z,12.27
2022-10-02T04:27:03.795Z,12.27
2022-10-02T04:29:41.823Z,12.27
2022-10-02T04:32:17.882Z,12.27
2022-10-02T04:34:51.950Z,12.27
2022-10-02T04:38:02.567Z,12.31
2022-10-02T04:40:58.810Z,12.34
2022-10-02T04:43:48.255Z,12.32
2022-10-02T04:46:41.108Z,12.32
2022-10-02T04:49:27.437Z,12.32
2022-10-02T04:52:21.194Z,12.33
2022-10-02T04:55:18.002Z,12.33
2022-10-02T04:58:07.763Z,12.35
2022-10-02T05:00:49.755Z,12.34
2022-10-02T05:03:44.365Z,12.32
2022-10-02T05:06:32.986Z,12.33
2022-10-02T05:09:17.547Z,12.32
2022-10-02T05:12:14.001Z,12.33
2022-10-02T05:15:04.537Z,12.34
2022-10-02T05:18:09.274Z,12.40
2022-10-02T05:21:00.128Z,12.50
2022-10-02T05:23:46.467Z,12.42
2022-10-02T05:26:35.740Z,12.41
2022-10-02T05:29:32.188Z,12.43
2022-10-02T05:32:23.882Z,12.42
2022-10-02T05:35:16.027Z,12.43
2022-10-02T05:37:59.687Z,12.42
2022-10-02T05:40:39.446Z,12.43
2022-10-02T05:43:17.236Z,12.44
2022-10-02T05:45:56.680Z,12.45
2022-10-02T05:48:46.554Z,12.47
2022-10-02T05:51:25.813Z,12.48
2022-10-02T05:54:05.922Z,12.52
2022-10-02T05:56:43.000Z,12.58
2022-10-02T05:59:24.951Z,12.63
2022-10-02T06:02:06.460Z,12.68
2022-10-02T06:04:45.427Z,12.71
2022-10-02T06:07:19.651Z,12.74
2022-10-02T06:10:00.453Z,12.75
2022-10-02T06:12:42.038Z,12.76
2022-10-02T06:15:22.862Z,12.79
2022-10-02T06:18:09.288Z,12.83
2022-10-02T06:20:47.997Z,12.84
2022-10-02T06:23:25.972Z,12.90
2022-10-02T06:26:04.123Z,12.94
2022-10-02T06:28:42.871Z,12.96
2022-10-02T06:31:24.606Z,12.99
2022-10-02T06:33:59.969Z,13.02
2022-10-02T06:37:08.608Z,13.08
2022-10-02T06:39:51.026Z,13.11
2022-10-02T06:42:37.240Z,13.12
2022-10-02T06:45:21.455Z,13.13
2022-10-02T06:48:08.542Z,13.18
2022-10-02T06:50:52.335Z,13.20
2022-10-02T06:53:42.033Z,13.26
2022-10-02T06:56:32.932Z,13.31
2022-10-02T06:59:16.432Z,13.35
2022-10-02T07:01:58.921Z,13.39
2022-10-02T07:04:52.413Z,13.41
2022-10-02T07:07:49.488Z,13.42
2022-10-02T07:10:34.392Z,13.42
2022-10-02T07:13:27.416Z,13.42
2022-10-02T07:16:32.340Z,13.45
2022-10-02T07:19:28.082Z,13.61
2022-10-02T07:22:39.490Z,13.78
2022-10-02T07:25:24.345Z,14.05
2022-10-02T07:28:07.235Z,14.28
2022-10-02T07:30:52.897Z,14.50
2022-10-02T07:33:41.038Z,14.81
2022-10-02T07:36:20.668Z,15.18
2022-10-02T07:39:08.832Z,15.49
2022-10-02T07:42:16.656Z,15.94
2022-10-02T07:45:04.656Z,16.08
2022-10-02T07:48:12.055Z,16.04
2022-10-02T07:50:56.995Z,15.81
2022-10-02T07:53:40.121Z,15.59
2022-10-02T07:56:22.741Z,15.40
2022-10-02T07:59:05.623Z,15.25
2022-10-02T08:01:42.178Z,15.17
2022-10-02T08:04:20.139Z,15.33
2022-10-02T08:06:59.403Z,15.45
2022-10-02T08:09:36.586Z,15.47
2022-10-02T08:12:29.076Z,15.40
2022-10-02T08:15:06.814Z,15.21
2022-10-02T08:17:46.929Z,15.07
2022-10-02T08:20:29.416Z,15.06
2022-10-02T08:23:09.405Z,14.95
2022-10-02T08:25:49.598Z,14.84
2022-10-02T08:28:30.575Z,15.00
2022-10-02T08:31:10.601Z,15.52
2022-10-02T08:33:44.542Z,15.94
2022-10-02T08:36:50.224Z,16.17
2022-10-02T08:39:46.131Z,17.10
2022-10-02T08:42:58.065Z,17.11
2022-10-02T08:46:12.371Z,17.38
2022-10-02T08:52:19.538Z,17.38
2022-10-02T08:55:20.727Z,16.95
2022-10-02T08:58:21.244Z,16.45
2022-10-02T09:01:11.008Z,15.96
2022-10-02T09:04:26.734Z,15.46
2022-10-02T09:07:36.609Z,15.05
2022-10-02T09:10:38.717Z,14.83
2022-10-02T09:13:46.405Z,14.81
2022-10-02T09:16:30.798Z,14.81
2022-10-02T09:19:14.863Z,14.83
2022-10-02T09:21:56.474Z,14.98
2022-10-02T09:25:11.417Z,15.28
2022-10-02T09:28:14.525Z,15.96
2022-10-02T09:31:19.790Z,16.68
2022-10-02T09:34:27.101Z,16.82
2022-10-02T09:37:28.690Z,17.09
2022-10-02T09:40:43.510Z,17.30
2022-10-02T09:44:00.253Z,17.56
2022-10-02T09:47:04.322Z,17.69
2022-10-02T09:50:01.617Z,17.59
2022-10-02T09:53:13.744Z,17.52
2022-10-02T09:56:19.110Z,17.40
2022-10-02T09:59:22.865Z,17.17
2022-10-02T10:02:34.625Z,16.93
2022-10-02T10:05:34.381Z,17.10
2022-10-02T10:08:33.257Z,19.48
2022-10-02T10:11:29.402Z,21.76
2022-10-02T10:14:40.059Z,23.81
2022-10-02T10:17:56.857Z,25.94
2022-10-02T10:21:08.946Z,27.61
2022-10-02T10:24:13.465Z,27.97
2022-10-02T10:27:08.143Z,27.21
2022-10-02T10:30:05.557Z,26.92
2022-10-02T10:33:13.262Z,25.84
2022-10-02T10:36:34.193Z,24.55
2022-10-02T10:39:51.473Z,23.20
2022-10-02T10:43:07.880Z,22.17
2022-10-02T10:46:03.102Z,21.33
2022-10-02T10:48:56.562Z,20.56
2022-10-02T10:51:35.607Z,20.01
2022-10-02T10:54:45.004Z,19.78
2022-10-02T10:57:31.395Z,19.47
2022-10-02T11:00:17.996Z,20.72
2022-10-02T11:03:08.491Z,22.87
2022-10-02T11:06:04.132Z,23.83
2022-10-02T11:09:05.616Z,23.94
2022-10-02T11:11:59.334Z,24.59
2022-10-02T11:14:41.802Z,23.77
2022-10-02T11:17:36.375Z,23.14
2022-10-02T11:20:38.549Z,22.53
2022-10-02T11:24:02.234Z,21.87
2022-10-02T11:26:58.676Z,21.32
2022-10-02T11:30:07.895Z,20.76
2022-10-02T11:33:10.939Z,20.05
2022-10-02T11:35:58.947Z,19.33
2022-10-02T11:39:06.441Z,18.67
2022-10-02T11:42:11.783Z,18.07
2022-10-02T11:45:17.405Z,17.70
2022-10-02T11:48:14.377Z,17.48
2022-10-02T11:51:10.141Z,17.26
2022-10-02T11:54:19.485Z,17.09
2022-10-02T11:57:08.902Z,17.01
2022-10-02T12:00:06.738Z,16.96
2022-10-02T12:02:56.802Z,16.83
2022-10-02T12:05:46.531Z,16.76
2022-10-02T12:08:31.482Z,16.68
2022-10-02T12:11:12.979Z,16.63
2022-10-02T12:14:06.507Z,16.58
2022-10-02T12:16:51.817Z,16.52
2022-10-02T12:20:06.695Z,16.49
2022-10-02T12:23:05.147Z,16.52
2022-10-02T12:26:02.328Z,16.58
2022-10-02T12:28:56.301Z,16.61
2022-10-02T12:31:39.981Z,16.56
2022-10-02T12:34:27.708Z,16.56
2022-10-02T12:37:09.753Z,16.37
2022-10-02T12:39:51.740Z,16.26
2022-10-02T12:42:47.859Z,16.26
2022-10-02T12:45:44.594Z,16.25
2022-10-02T12:48:32.605Z,16.25
2022-10-02T12:51:36.873Z,16.31
2022-10-02T12:54:33.838Z,16.38
2022-10-02T12:57:40.769Z,16.32
2022-10-02T13:00:17.234Z,16.30
2022-10-02T13:03:21.743Z,16.29
2022-10-02T13:06:29.820Z,16.23
2022-10-02T13:09:15.029Z,16.17
2022-10-02T13:12:01.698Z,16.18
2022-10-02T13:15:03.080Z,16.69
2022-10-02T13:17:46.427Z,17.24
2022-10-02T13:20:32.677Z,17.55
2022-10-02T13:23:19.465Z,17.59
2022-10-02T13:26:05.269Z,17.56
2022-10-02T13:29:08.234Z,17.55
2022-10-02T13:31:59.223Z,17.38
2022-10-02T13:34:59.160Z,17.33
2022-10-02T13:37:45.248Z,17.36
2022-10-02T13:40:24.975Z,17.43
2022-10-02T13:43:26.138Z,17.54
2022-10-02T13:46:08.017Z,17.52
2022-10-02T13:48:55.562Z,17.51
2022-10-02T13:51:38.544Z,17.46
2022-10-02T13:54:43.577Z,17.48
2022-10-02T13:57:31.353Z,17.43
2022-10-02T14:00:14.445Z,17.43
2022-10-02T14:03:01.166Z,17.42
2022-10-02T14:05:43.632Z,17.38
2022-10-02T14:08:41.244Z,17.37
2022-10-02T14:11:29.990Z,17.30
2022-10-02T14:14:18.173Z,17.20
2022-10-02T14:17:04.915Z,17.09
2022-10-02T14:19:59.076Z,16.96
2022-10-02T14:22:48.608Z,16.95
2022-10-02T14:25:37.004Z,16.76
2022-10-02T14:28:49.001Z,16.70
2022-10-02T14:31:38.354Z,16.61
2022-10-02T14:34:37.686Z,16.59
2022-10-02T14:37:42.700Z,16.57
2022-10-02T14:40:19.330Z,16.44
2022-10-02T14:43:10.963Z,16.38
2022-10-02T14:46:38.560Z,16.38
2022-10-02T14:49:29.150Z,16.28
2022-10-02T14:52:34.486Z,16.20
2022-10-02T14:55:30.109Z,16.13
2022-10-02T14:58:29.149Z,16.06
2022-10-02T15:01:22.716Z,15.95
2022-10-02T15:04:28.072Z,15.86
2022-10-02T15:07:07.020Z,15.72
2022-10-02T15:10:05.625Z,15.68
2022-10-02T15:12:50.217Z,15.58
2022-10-02T15:15:27.865Z,15.50
2022-10-02T15:18:21.593Z,15.45
2022-10-02T15:21:00.906Z,15.36
2022-10-02T15:23:47.936Z,15.30
2022-10-02T15:26:42.219Z,15.24
2022-10-02T15:29:25.346Z,15.16
2022-10-02T15:32:33.997Z,15.14
2022-10-02T15:35:21.978Z,15.04
2022-10-02T15:38:21.958Z,14.99
2022-10-02T15:41:18.953Z,14.92
2022-10-02T15:44:03.508Z,14.87
2022-10-02T15:46:52.015Z,14.80
2022-10-02T15:49:41.210Z,14.76
2022-10-02T15:52:24.660Z,14.70
2022-10-02T15:55:18.653Z,14.68
2022-10-02T15:58:08.849Z,14.63
2022-10-02T16:01:20.038Z,14.62
2022-10-02T16:03:56.259Z,14.52
2022-10-02T16:06:53.784Z,14.48
2022-10-02T16:09:48.941Z,14.44
2022-10-02T16:13:01.654Z,14.40
2022-10-02T16:15:51.468Z,14.32
2022-10-02T16:18:44.294Z,14.24
2022-10-02T16:21:40.448Z,14.15
2022-10-02T16:24:36.720Z,14.07
2022-10-02T16:27:22.262Z,14.02
2022-10-02T16:30:08.449Z,13.97
2022-10-02T16:33:16.037Z,13.94
2022-10-02T16:36:16.168Z,13.89
2022-10-02T16:38:51.163Z,13.86
2022-10-02T16:41:38.663Z,13.86
2022-10-02T16:44:34.343Z,13.87
2022-10-02T16:47:16.492Z,13.85
2022-10-02T16:49:58.046Z,13.81
2022-10-02T16:52:35.288Z,13.79
2022-10-02T16:55:19.939Z,13.77
2022-10-02T16:58:19.591Z,13.79
2022-10-02T17:00:57.803Z,13.76
2022-10-02T17:03:43.984Z,13.76
2022-10-02T17:06:27.096Z,13.75
2022-10-02T17:09:07.615Z,13.76
2022-10-02T17:11:53.666Z,13.79
2022-10-02T17:14:40.809Z,13.80
2022-10-02T17:17:23.200Z,13.82
2022-10-02T17:20:16.775Z,13.86
2022-10-02T17:23:00.991Z,13.86
2022-10-02T17:25:44.762Z,13.87
2022-10-02T17:28:27.192Z,13.89
2022-10-02T17:31:20.690Z,13.93
2022-10-02T17:33:59.449Z,13.91
2022-10-02T17:36:37.660Z,13.93
2022-10-02T17:39:26.227Z,13.92
2022-10-02T17:42:14.568Z,13.89
2022-10-02T17:45:03.698Z,13.83
2022-10-02T17:47:57.998Z,13.79
2022-10-02T17:50:42.611Z,13.86
2022-10-02T17:53:40.893Z,13.83
2022-10-02T17:56:48.433Z,13.69
2022-10-02T17:59:41.300Z,13.59
2022-10-02T18:02:26.283Z,13.55
2022-10-02T18:05:28.042Z,13.55
2022-10-02T18:08:20.122Z,13.53
2022-10-02T18:11:03.287Z,13.50
2022-10-02T18:13:57.376Z,13.48
2022-10-02T18:16:48.022Z,13.44
2022-10-02T18:19:29.271Z,13.43
2022-10-02T18:22:19.219Z,13.42
2022-10-02T18:25:16.901Z,13.43
2022-10-02T18:28:08.217Z,13.43
2022-10-02T18:30:50.261Z,13.41
2022-10-02T18:33:58.959Z,13.44
2022-10-02T18:36:43.906Z,13.40
2022-10-02T18:39:28.345Z,13.39
2022-10-02T18:42:26.053Z,13.41
2022-10-02T18:45:09.920Z,13.38
2022-10-02T18:47:57.987Z,13.37
2022-10-02T18:50:49.240Z,13.36
2022-10-02T18:53:45.185Z,13.37
2022-10-02T18:56:25.396Z,13.34
2022-10-02T18:59:14.029Z,13.34
2022-10-02T19:02:09.049Z,13.34
2022-10-02T19:05:10.363Z,13.30
2022-10-02T19:07:50.477Z,13.24
2022-10-02T19:10:30.198Z,13.22
2022-10-02T19:13:18.054Z,13.21
2022-10-02T19:15:54.180Z,13.15
2022-10-02T19:18:30.824Z,13.11
2022-10-02T19:21:11.807Z,13.07
2022-10-02T19:23:50.739Z,13.03
2022-10-02T19:26:27.815Z,12.99
2022-10-02T19:29:04.687Z,12.99
2022-10-02T19:31:41.697Z,12.99
2022-10-02T19:34:21.801Z,13.01
2022-10-02T19:36:59.973Z,13.05
2022-10-02T19:39:37.435Z,13.11
2022-10-02T19:42:17.100Z,13.18
2022-10-02T19:44:56.376Z,13.22
2022-10-02T19:47:35.356Z,13.26
2022-10-02T19:50:23.457Z,13.31
2022-10-02T19:53:00.125Z,13.30
2022-10-02T19:55:38.381Z,13.29
2022-10-02T19:58:21.500Z,13.27
2022-10-02T20:00:58.849Z,13.25
2022-10-02T20:03:34.019Z,13.20
2022-10-02T20:06:16.485Z,13.16
2022-10-02T20:08:55.488Z,13.10
2022-10-02T20:11:36.302Z,13.07
2022-10-02T20:14:18.805Z,13.03
2022-10-02T20:17:12.952Z,12.97
2022-10-02T20:19:51.128Z,12.94
2022-10-02T20:22:36.870Z,12.88
2022-10-02T20:25:18.391Z,12.85
2022-10-02T20:28:01.332Z,12.83
2022-10-02T20:30:41.868Z,12.82
2022-10-02T20:33:24.532Z,12.79
2022-10-02T20:36:03.398Z,12.77
2022-10-02T20:38:47.134Z,12.76
2022-10-02T20:41:25.033Z,12.72
2022-10-02T20:44:03.238Z,12.68
2022-10-02T20:47:10.616Z,12.64
2022-10-02T20:50:15.962Z,12.56
2022-10-02T20:53:29.412Z,12.45
2022-10-02T20:56:13.377Z,12.31
2022-10-02T20:58:57.689Z,12.36
2022-10-02T21:01:40.271Z,12.18
2022-10-02T21:04:49.452Z,12.14
2022-10-02T21:07:47.787Z,12.07
2022-10-02T21:10:46.580Z,12.07
2022-10-02T21:14:11.315Z,12.07
2022-10-02T21:17:24.317Z,12.02
2022-10-02T21:20:49.654Z,11.97
2022-10-02T21:24:13.905Z,11.92
2022-10-02T21:27:17.967Z,11.85
2022-10-02T21:30:11.353Z,11.78
2022-10-02T21:33:03.378Z,11.70
2022-10-02T21:35:42.267Z,11.57
2022-10-02T21:38:46.362Z,11.53
2022-10-02T21:42:01.127Z,11.45
2022-10-02T21:45:10.847Z,11.38
2022-10-02T21:51:33.726Z,11.25
2022-10-02T21:54:49.659Z,11.18
2022-10-02T21:57:59.457Z,11.11
2022-10-02T22:00:33.001Z,11.03
2022-10-02T22:03:39.120Z,11.03
2022-10-02T22:06:36.563Z,10.99
2022-10-02T22:09:30.408Z,10.95
2022-10-02T22:12:17.558Z,10.93
2022-10-02T22:15:04.627Z,10.89
2022-10-02T22:17:49.438Z,10.88
2022-10-02T22:20:51.813Z,10.86
2022-10-02T22:23:45.861Z,10.82
2022-10-02T22:26:34.998Z,10.80
2022-10-02T22:29:18.808Z,10.80
2022-10-02T22:32:29.673Z,10.84
2022-10-02T22:35:21.153Z,10.85
2022-10-02T22:38:18.054Z,10.87
2022-10-02T22:41:02.786Z,10.82
2022-10-02T22:43:44.072Z,10.80
2022-10-02T22:46:30.253Z,10.84
2022-10-02T22:49:11.958Z,10.86
2022-10-02T22:52:00.241Z,10.87
2022-10-02T22:54:44.852Z,10.89
2022-10-02T22:57:31.096Z,10.92
2022-10-02T23:00:13.538Z,10.93
2022-10-02T23:02:53.419Z,10.95
2022-10-02T23:05:35.794Z,10.95
2022-10-02T23:08:23.887Z,10.96
2022-10-02T23:11:06.090Z,10.90
2022-10-02T23:13:49.355Z,10.87
2022-10-02T23:16:29.498Z,10.87
2022-10-02T23:19:12.502Z,10.88
2022-10-02T23:21:52.710Z,10.88
2022-10-02T23:28:50.521Z,10.93
2022-10-02T23:31:35.221Z,10.90
2022-10-02T23:34:11.303Z,11.04
2022-10-02T23:36:51.938Z,10.98
2022-10-02T23:39:31.977Z,10.98
2022-10-02T23:42:08.566Z,10.99
2022-10-02T23:44:49.918Z,10.98
2022-10-02T23:47:42.481Z,11.01
2022-10-02T23:50:24.186Z,11.01
2022-10-02T23:53:42.501Z,11.08
2022-10-02T23:56:35.884Z,11.08
2022-10-02T23:59:38.962Z,11.15
